createdAt,value
2023-02-09T00:04:04.555Z,137.88
2023-02-09T00:09:07.043Z,103.07
2023-02-09T00:14:13.966Z,143.33
2023-02-09T00:19:17.347Z,121.40
2023-02-09T00:24:20.130Z,146.30
2023-02-09T00:29:24.078Z,106.87
2023-02-09T00:34:26.867Z,148.77
2023-02-09T00:39:30.772Z,147.57
2023-02-09T00:44:34.951Z,149.50
2023-02-09T00:49:37.749Z,151.73
2023-02-09T00:54:41.164Z,116.87
2023-02-09T00:59:43.494Z,158.13
2023-02-09T01:04:45.970Z,148.37
2023-02-09T01:09:51.141Z,153.65
2023-02-09T01:14:53.570Z,148.37
2023-02-09T01:19:56.432Z,127.30
2023-02-09T01:24:58.797Z,118.88
2023-02-09T01:30:01.132Z,152.13
2023-02-09T01:35:03.948Z,159.13
2023-02-09T01:40:07.058Z,147.33
2023-02-09T01:45:27.594Z,158.73
2023-02-09T01:50:40.020Z,149.17
2023-02-09T01:55:49.306Z,139.57
2023-02-09T02:00:51.749Z,144.97
2023-02-09T02:06:04.586Z,104.15
2023-02-09T02:11:10.821Z,143.67
2023-02-09T02:16:16.272Z,149.97
2023-02-09T02:21:37.125Z,130.63
2023-02-09T02:26:47.771Z,124.83
2023-02-09T02:31:50.257Z,134.83
2023-02-09T02:37:11.611Z,146.73
2023-02-09T02:42:38.033Z,154.07
2023-02-09T02:47:42.887Z,145.53
2023-02-09T02:52:48.434Z,140.10
2023-02-09T02:57:52.122Z,136.47
2023-02-09T03:02:56.872Z,145.33
2023-02-09T03:07:59.318Z,126.27
2023-02-09T03:13:28.659Z,130.47
2023-02-09T03:18:31.038Z,129.03
2023-02-09T03:23:40.107Z,136.63
2023-02-09T03:28:43.333Z,124.97
2023-02-09T03:33:46.022Z,123.45
2023-02-09T03:38:48.464Z,127.87
2023-02-09T03:44:09.476Z,150.10
2023-02-09T03:49:15.018Z,152.40
2023-02-09T03:54:17.879Z,161.80
2023-02-09T03:59:21.535Z,164.77
2023-02-09T04:09:26.936Z,143.43
2023-02-09T04:14:29.468Z,133.25
2023-02-09T04:19:31.877Z,170.80
2023-02-09T04:24:34.609Z,188.10
2023-02-09T04:29:38.433Z,173.00
2023-02-09T04:34:40.879Z,193.27
2023-02-09T04:39:43.360Z,199.43
2023-02-09T04:44:45.797Z,185.00
2023-02-09T04:49:48.173Z,136.23
2023-02-09T04:54:50.767Z,155.43
2023-02-09T04:59:53.212Z,106.00
2023-02-09T05:04:55.567Z,146.73
2023-02-09T05:09:57.992Z,139.50
2023-02-09T05:15:01.444Z,135.97
2023-02-09T05:25:07.066Z,123.47
2023-02-09T05:30:10.277Z,132.47
2023-02-09T05:35:12.895Z,133.93
2023-02-09T05:40:15.806Z,134.13
2023-02-09T05:45:18.271Z,90.80
2023-02-09T05:50:20.589Z,125.27
2023-02-09T05:55:23.046Z,130.90
2023-02-09T06:00:27.167Z,134.93
2023-02-09T06:05:32.939Z,109.13
2023-02-09T06:10:35.357Z,110.53
2023-02-09T06:15:37.766Z,110.20
2023-02-09T06:20:40.830Z,133.48
2023-02-09T06:25:43.236Z,131.30
2023-02-09T06:30:50.428Z,99.70
2023-02-09T06:35:53.233Z,171.23
2023-02-09T06:40:55.739Z,131.07
2023-02-09T06:45:58.237Z,128.40
2023-02-09T06:51:00.741Z,139.80
2023-02-09T06:56:04.547Z,128.27
2023-02-09T07:06:20.048Z,122.57
2023-02-09T07:11:22.602Z,135.47
2023-02-09T07:16:25.113Z,102.20
2023-02-09T07:21:27.822Z,108.17
2023-02-09T07:26:30.331Z,115.83
2023-02-09T07:31:32.914Z,112.85
2023-02-09T07:36:35.386Z,89.17
2023-02-09T07:41:38.313Z,112.03
2023-02-09T07:46:41.099Z,102.22
2023-02-09T07:51:43.938Z,102.27
2023-02-09T07:56:46.459Z,88.47
2023-02-09T08:01:48.949Z,84.97
2023-02-09T08:06:53.311Z,90.38
2023-02-09T08:11:58.702Z,92.90
2023-02-09T08:17:24.480Z,94.45
2023-02-09T08:22:29.832Z,94.55
2023-02-09T08:27:32.366Z,95.13
2023-02-09T08:32:34.801Z,83.07
2023-02-09T08:37:37.358Z,73.78
2023-02-09T08:42:39.691Z,79.50
2023-02-09T08:47:42.194Z,72.38
2023-02-09T08:52:44.592Z,83.43
2023-02-09T08:57:47.051Z,114.47
2023-02-09T09:02:50.576Z,214.95
2023-02-09T09:07:52.964Z,257.85
2023-02-09T09:12:55.785Z,197.55
2023-02-09T09:17:58.390Z,147.35
2023-02-09T09:23:02.090Z,105.22
2023-02-09T09:28:05.277Z,80.60
2023-02-09T09:33:07.688Z,93.20
2023-02-09T09:38:11.057Z,115.43
2023-02-09T09:43:39.978Z,84.68
2023-02-09T09:48:45.295Z,55.15
2023-02-09T09:53:50.755Z,46.70
2023-02-09T09:58:53.159Z,67.85
2023-02-09T10:03:58.982Z,57.17
2023-02-09T10:09:10.517Z,36.45
2023-02-09T10:14:13.280Z,32.95
2023-02-09T10:19:26.121Z,55.90
2023-02-09T10:24:35.353Z,57.10
2023-02-09T10:29:38.077Z,61.60
2023-02-09T10:34:44.615Z,56.60
2023-02-09T10:40:12.385Z,52.63
2023-02-09T10:45:35.085Z,42.33
2023-02-09T10:50:48.930Z,44.10
2023-02-09T10:55:59.525Z,41.25
2023-02-09T11:01:14.080Z,35.78
2023-02-09T11:06:19.777Z,38.75
2023-02-09T11:11:30.256Z,43.08
2023-02-09T11:17:03.742Z,44.10
2023-02-09T11:22:43.013Z,57.50
2023-02-09T11:28:23.075Z,61.45
2023-02-09T11:33:39.020Z,48.58
2023-02-09T11:39:00.595Z,32.40
2023-02-09T11:44:04.307Z,41.65
2023-02-09T11:49:20.019Z,38.17
2023-02-09T11:54:26.874Z,33.17
2023-02-09T11:59:33.886Z,26.02
2023-02-09T12:04:59.030Z,34.17
2023-02-09T12:10:16.245Z,33.42
2023-02-09T12:15:26.609Z,48.60
2023-02-09T12:20:49.961Z,47.03
2023-02-09T12:26:21.708Z,75.70
2023-02-09T12:31:26.799Z,40.05
2023-02-09T12:36:31.925Z,39.70
2023-02-09T12:41:34.440Z,34.38
2023-02-09T12:46:46.845Z,30.58
2023-02-09T12:51:55.387Z,47.13
2023-02-09T12:57:16.011Z,63.92
2023-02-09T13:02:35.903Z,101.20
2023-02-09T13:08:05.810Z,113.15
2023-02-09T13:13:11.225Z,134.05
2023-02-09T13:18:39.754Z,70.68
2023-02-09T13:24:07.434Z,65.50
2023-02-09T13:29:21.295Z,90.88
2023-02-09T13:34:33.580Z,83.75
2023-02-09T13:39:38.383Z,96.72
2023-02-09T13:44:44.478Z,103.00
2023-02-09T13:49:59.530Z,98.32
2023-02-09T13:55:13.034Z,73.38
2023-02-09T14:00:23.282Z,67.97
2023-02-09T14:05:28.052Z,58.40
2023-02-09T14:10:31.474Z,84.40
2023-02-09T14:15:58.263Z,64.53
2023-02-09T14:21:16.036Z,143.77
2023-02-09T14:26:24.758Z,88.15
2023-02-09T14:31:27.344Z,71.93
2023-02-09T14:36:35.116Z,80.35
2023-02-09T14:41:38.158Z,64.57
2023-02-09T14:46:48.150Z,45.70
2023-02-09T14:51:56.770Z,62.10
2023-02-09T14:57:01.304Z,60.97
2023-02-09T15:02:16.762Z,46.15
2023-02-09T15:07:25.678Z,37.13
2023-02-09T15:12:29.361Z,28.20
2023-02-09T15:22:34.765Z,59.15
2023-02-09T15:27:51.877Z,731.90
2023-02-09T15:32:54.396Z,713.75
2023-02-09T15:38:05.871Z,321.67
2023-02-09T15:43:41.209Z,151.85
2023-02-09T15:48:44.096Z,106.03
2023-02-09T15:53:47.011Z,103.15
2023-02-09T15:58:51.448Z,127.27
2023-02-09T16:03:58.424Z,365.70
2023-02-09T16:09:06.802Z,264.83
2023-02-09T16:14:16.749Z,122.30
2023-02-09T16:19:19.892Z,129.45
2023-02-09T16:24:45.431Z,166.98
2023-02-09T16:29:47.860Z,284.92
2023-02-09T16:34:51.154Z,458.08
2023-02-09T16:39:54.474Z,359.02
2023-02-09T16:44:58.447Z,395.63
2023-02-09T16:50:28.061Z,284.75
2023-02-09T16:55:35.806Z,258.15
2023-02-09T17:00:38.580Z,218.70
2023-02-09T17:05:47.180Z,180.47
2023-02-09T17:10:52.581Z,129.20
2023-02-09T17:16:04.237Z,186.93
2023-02-09T17:21:15.099Z,176.63
2023-02-09T17:26:17.918Z,249.55
2023-02-09T17:31:29.214Z,184.17
2023-02-09T17:36:32.229Z,209.05
2023-02-09T17:41:37.374Z,317.35
2023-02-09T17:46:40.520Z,460.73
2023-02-09T17:51:46.163Z,244.70
2023-02-09T17:56:48.806Z,171.35
2023-02-09T18:01:51.260Z,258.88
2023-02-09T18:06:56.621Z,209.77
2023-02-09T18:12:02.306Z,181.35
2023-02-09T18:17:05.111Z,189.90
2023-02-09T18:22:07.611Z,235.57
2023-02-09T18:27:21.184Z,147.13
2023-02-09T18:32:24.126Z,81.88
2023-02-09T18:37:26.770Z,88.47
2023-02-09T18:42:29.268Z,91.45
2023-02-09T18:47:32.798Z,61.15
2023-02-09T18:52:35.299Z,48.22
2023-02-09T18:57:37.729Z,43.88
2023-02-09T19:02:40.652Z,56.38
2023-02-09T19:07:44.062Z,37.33
2023-02-09T19:17:50.523Z,71.85
2023-02-09T19:23:04.328Z,201.35
2023-02-09T19:28:18.586Z,185.77
2023-02-09T19:33:58.421Z,103.68
2023-02-09T19:39:02.305Z,116.82
2023-02-09T19:44:06.398Z,131.95
2023-02-09T19:49:18.204Z,117.43
2023-02-09T19:54:20.670Z,108.15
2023-02-09T19:59:23.042Z,94.53
2023-02-09T20:04:25.570Z,110.70
2023-02-09T20:09:27.958Z,71.15
2023-02-09T20:14:33.579Z,63.38
2023-02-09T20:19:43.074Z,56.45
2023-02-09T20:24:48.771Z,80.03
2023-02-09T20:29:51.530Z,56.92
2023-02-09T20:34:54.563Z,51.20
2023-02-09T20:39:57.901Z,35.03
2023-02-09T20:45:19.249Z,45.15
2023-02-09T20:50:21.758Z,45.42
2023-02-09T20:55:24.509Z,51.58
2023-02-09T21:00:37.933Z,49.97
2023-02-09T21:05:40.583Z,54.97
2023-02-09T21:10:43.898Z,52.67
2023-02-09T21:15:48.636Z,47.25
2023-02-09T21:20:54.183Z,51.88
2023-02-09T21:26:01.399Z,54.13
2023-02-09T21:31:13.110Z,54.60
2023-02-09T21:36:15.551Z,56.35
2023-02-09T21:41:39.184Z,58.15
2023-02-09T21:46:42.113Z,57.55
2023-02-09T21:51:44.953Z,67.83
2023-02-09T21:56:48.276Z,67.93
2023-02-09T22:01:51.982Z,65.40
2023-02-09T22:11:56.758Z,43.97
2023-02-09T22:16:59.374Z,39.50
2023-02-09T22:22:02.044Z,43.93
2023-02-09T22:27:07.011Z,72.70
2023-02-09T22:32:09.458Z,68.15
2023-02-09T22:37:11.927Z,63.28
2023-02-09T22:42:14.228Z,63.67
2023-02-09T22:47:16.661Z,49.08
2023-02-09T22:52:19.084Z,69.22
2023-02-09T22:57:21.495Z,97.47
2023-02-09T23:02:24.544Z,105.10
2023-02-09T23:07:27.537Z,97.18
2023-02-09T23:12:29.970Z,70.03
2023-02-09T23:17:33.047Z,72.05
2023-02-09T23:22:35.589Z,48.30
2023-02-09T23:27:39.665Z,41.40
2023-02-09T23:39:18.298Z,39.90
2023-02-09T23:45:18.008Z,38.10
2023-02-09T23:51:14.715Z,51.47
